createdAt,value
2018-11-10T12:42:34.348Z,32.80
2018-11-10T12:45:04.150Z,32.50
2018-11-10T12:47:33.351Z,33.40
2018-11-10T12:50:02.562Z,33.50
2018-11-10T12:52:31.746Z,33.50
2018-11-10T12:55:02.325Z,33.30
2018-11-10T12:57:31.342Z,32.70
2018-11-10T13:00:01.226Z,32.40
2018-11-10T13:02:30.629Z,32.60
2018-11-10T13:04:59.892Z,33.30
2018-11-10T13:07:29.249Z,34.10
2018-11-10T13:12:27.889Z,35.10
2018-11-10T13:14:58.279Z,35.40
2018-11-10T13:17:31.409Z,35.50
2018-11-10T13:20:02.787Z,35.40
2018-11-10T13:22:34.333Z,35.40
2018-11-10T13:25:06.286Z,35.50
2018-11-10T13:27:36.128Z,36.00
2018-11-10T13:30:08.685Z,36.40
2018-11-10T13:32:39.426Z,36.80
2018-11-10T13:35:13.026Z,36.90
2018-11-10T13:37:43.866Z,37.10
2018-11-10T13:40:15.197Z,37.30
2018-11-10T13:42:44.349Z,37.50
2018-11-10T13:45:15.055Z,37.50
2018-11-10T13:47:45.884Z,37.40
2018-11-10T13:50:15.732Z,36.60
2018-11-10T13:52:49.644Z,35.00
2018-11-10T13:55:18.592Z,32.80
2018-11-10T13:57:48.172Z,30.70
2018-11-10T14:00:18.730Z,28.80
2018-11-10T14:02:51.089Z,27.20
2018-11-10T14:05:20.591Z,25.90
2018-11-10T14:07:51.275Z,24.80
2018-11-10T14:10:20.963Z,24.00
2018-11-10T14:12:50.444Z,23.40
2018-11-10T14:15:20.289Z,22.90
2018-11-10T14:17:50.933Z,22.50
2018-11-10T14:20:20.135Z,22.10
2018-11-10T14:22:49.492Z,22.00
2018-11-10T14:25:18.867Z,22.70
2018-11-10T14:27:50.334Z,24.10
2018-11-10T14:30:19.917Z,25.70
2018-11-10T14:32:49.859Z,27.10
2018-11-10T14:35:20.058Z,27.90
2018-11-10T14:37:49.635Z,27.80
2018-11-10T14:40:19.195Z,26.90
2018-11-10T14:42:49.066Z,25.70
2018-11-10T14:45:19.669Z,24.60
2018-11-10T14:47:49.432Z,23.50
2018-11-10T14:50:19.259Z,22.60
2018-11-10T14:52:48.741Z,21.80
2018-11-10T14:55:18.454Z,21.10
2018-11-10T14:57:48.237Z,20.60
2018-11-10T15:00:22.072Z,20.10
2018-11-10T15:02:52.166Z,19.80
2018-11-10T15:05:21.451Z,19.40
2018-11-10T15:07:53.899Z,19.20
2018-11-10T15:10:26.352Z,18.90
2018-11-10T15:12:57.224Z,18.70
2018-11-10T15:18:45.390Z,18.40
2018-11-10T15:21:16.486Z,18.30
2018-11-10T15:23:51.833Z,18.20
2018-11-10T15:26:25.474Z,17.90
2018-11-10T15:28:57.491Z,17.90
2018-11-10T15:31:29.547Z,17.90
2018-11-10T15:33:59.191Z,17.80
2018-11-10T15:36:28.174Z,17.70
2018-11-10T15:38:57.469Z,17.60
2018-11-10T15:41:26.467Z,17.50
2018-11-10T15:43:58.699Z,17.40
2018-11-10T15:46:28.744Z,17.30
2018-11-10T15:48:58.426Z,17.20
2018-11-10T15:51:28.022Z,17.10
2018-11-10T15:54:00.331Z,17.10
2018-11-10T15:56:29.625Z,17.00
2018-11-10T15:59:01.749Z,16.90
2018-11-10T16:01:32.702Z,16.90
2018-11-10T16:04:04.699Z,16.80
2018-11-10T16:06:35.113Z,16.70
2018-11-10T16:09:07.057Z,16.70
2018-11-10T16:11:36.998Z,16.60
2018-11-10T16:14:06.497Z,16.50
2018-11-10T16:16:36.513Z,16.40
2018-11-10T16:19:06.160Z,16.40
2018-11-10T16:21:36.044Z,16.40
2018-11-10T16:24:05.762Z,16.30
2018-11-10T16:26:35.049Z,16.20
2018-11-10T16:29:04.097Z,16.20
2018-11-10T16:31:33.021Z,16.20
2018-11-10T16:34:02.022Z,16.10
2018-11-10T16:36:31.013Z,16.10
2018-11-10T16:39:00.294Z,16.00
2018-11-10T16:41:30.441Z,16.00
2018-11-10T16:43:59.580Z,15.90
2018-11-10T16:46:29.154Z,15.90
2018-11-10T16:48:58.117Z,15.90
2018-11-10T16:51:27.198Z,15.80
2018-11-10T16:53:57.059Z,15.80
2018-11-10T16:56:26.040Z,15.80
2018-11-10T16:58:55.102Z,15.70
2018-11-10T17:01:25.453Z,15.70
2018-11-10T17:03:54.664Z,15.70
2018-11-10T17:06:23.858Z,15.70
2018-11-10T17:08:54.075Z,15.60
2018-11-10T17:11:24.154Z,15.60
2018-11-10T17:13:53.282Z,15.50
2018-11-10T17:16:22.478Z,15.50
2018-11-10T17:18:51.795Z,15.50
2018-11-10T17:21:20.883Z,15.50
2018-11-10T17:23:50.207Z,15.40
2018-11-10T17:26:19.580Z,15.40
2018-11-10T17:28:49.601Z,15.30
2018-11-10T17:31:19.210Z,15.30
2018-11-10T17:33:48.509Z,15.20
2018-11-10T17:36:18.117Z,15.20
2018-11-10T17:38:47.229Z,15.20
2018-11-10T17:41:16.778Z,15.20
2018-11-10T17:43:46.423Z,15.20
2018-11-10T17:46:16.121Z,15.20
2018-11-10T17:48:45.417Z,15.20
2018-11-10T17:51:14.847Z,15.10
2018-11-10T17:53:43.914Z,15.10
2018-11-10T17:56:12.945Z,15.10
2018-11-10T17:58:41.951Z,15.10
2018-11-10T18:01:11.353Z,15.10
2018-11-10T18:03:40.536Z,15.00
2018-11-10T18:06:09.699Z,15.10
2018-11-10T18:08:39.643Z,15.00
2018-11-10T18:11:08.717Z,15.00
2018-11-10T18:13:37.738Z,15.00
2018-11-10T18:16:06.801Z,15.00
2018-11-10T18:18:36.641Z,14.90
2018-11-10T18:21:06.532Z,15.00
2018-11-10T18:23:35.592Z,14.90
2018-11-10T18:26:04.538Z,14.90
2018-11-10T18:28:34.456Z,14.90
2018-11-10T18:31:03.819Z,14.90
2018-11-10T18:33:33.046Z,14.80
2018-11-10T18:36:02.414Z,14.80
2018-11-10T18:38:31.552Z,14.80
2018-11-10T18:41:00.620Z,14.80
2018-11-10T18:43:29.715Z,14.80
2018-11-10T18:45:59.156Z,14.80
2018-11-10T18:48:28.251Z,14.80
2018-11-10T18:50:57.515Z,14.70
2018-11-10T18:53:26.525Z,14.70
2018-11-10T18:55:55.526Z,14.60
2018-11-10T18:58:24.485Z,14.60
2018-11-10T19:00:55.261Z,14.60
2018-11-10T19:03:24.490Z,14.60
2018-11-10T19:05:53.629Z,14.50
2018-11-10T19:08:23.260Z,14.60
2018-11-10T19:10:54.006Z,14.50
2018-11-10T19:13:24.496Z,14.50
2018-11-10T19:15:54.805Z,14.40
2018-11-10T19:18:24.681Z,14.40
2018-11-10T19:20:54.384Z,14.40
2018-11-10T19:23:24.392Z,14.40
2018-11-10T19:25:54.659Z,14.40
2018-11-10T19:28:23.926Z,14.30
2018-11-10T19:30:54.485Z,14.30
2018-11-10T19:33:24.695Z,14.30
2018-11-10T19:35:54.493Z,14.30
2018-11-10T19:38:25.309Z,14.30
2018-11-10T19:40:54.838Z,14.30
2018-11-10T19:43:24.998Z,14.30
2018-11-10T19:45:54.742Z,14.30
2018-11-10T19:48:24.281Z,14.30
2018-11-10T19:50:54.461Z,14.20
2018-11-10T19:53:23.820Z,14.20
2018-11-10T19:55:53.973Z,14.20
2018-11-10T19:58:25.561Z,14.20
2018-11-10T20:00:56.487Z,14.20
2018-11-10T20:03:26.239Z,14.20
2018-11-10T20:05:57.337Z,14.20
2018-11-10T20:08:27.333Z,14.10
2018-11-10T20:10:57.866Z,14.10
2018-11-10T20:13:29.034Z,14.10
2018-11-10T20:16:30.817Z,14.10
2018-11-10T20:19:01.278Z,14.10
2018-11-10T20:21:31.829Z,14.10
2018-11-10T20:24:06.257Z,14.10
2018-11-10T20:26:38.983Z,14.00
2018-11-10T20:29:10.146Z,14.00
2018-11-10T20:31:41.065Z,14.10
2018-11-10T20:34:11.831Z,14.00
2018-11-10T20:36:42.441Z,14.00
2018-11-10T20:39:12.097Z,14.00
2018-11-10T20:41:42.571Z,13.90
2018-11-10T20:44:13.154Z,13.90
2018-11-10T20:46:43.549Z,13.90
2018-11-10T20:49:13.896Z,14.00
2018-11-10T20:51:45.466Z,13.90
2018-11-10T20:54:15.815Z,13.90
2018-11-10T20:56:45.951Z,13.90
2018-11-10T20:59:17.047Z,13.90
2018-11-10T21:01:46.927Z,13.90
2018-11-10T21:04:16.581Z,13.90
2018-11-10T21:06:46.642Z,13.80
2018-11-10T21:09:16.609Z,13.80
2018-11-10T21:11:46.605Z,13.80
2018-11-10T21:14:16.572Z,13.80
2018-11-10T21:16:46.812Z,13.70
2018-11-10T21:19:17.812Z,13.70
2018-11-10T21:21:48.426Z,13.70
2018-11-10T21:24:17.806Z,13.70
2018-11-10T21:26:47.369Z,13.70
2018-11-10T21:29:17.708Z,13.70
2018-11-10T21:31:47.172Z,13.70
2018-11-10T21:34:17.798Z,13.70
2018-11-10T21:36:49.013Z,13.60
2018-11-10T21:39:19.196Z,13.60
2018-11-10T21:41:49.166Z,13.60
2018-11-10T21:44:18.818Z,13.60
2018-11-10T21:46:48.809Z,13.60
2018-11-10T21:49:19.682Z,13.60
2018-11-10T21:51:49.575Z,13.60
2018-11-10T21:54:21.183Z,13.50
2018-11-10T21:56:51.196Z,13.50
2018-11-10T21:59:21.491Z,13.50
2018-11-10T22:01:50.751Z,13.50
2018-11-10T22:04:20.407Z,13.50
2018-11-10T22:06:49.935Z,13.50
2018-11-10T22:09:20.236Z,13.50
2018-11-10T22:11:49.897Z,13.40
2018-11-10T22:14:19.090Z,13.50
2018-11-10T22:16:48.915Z,13.50
2018-11-10T22:19:18.513Z,13.40
2018-11-10T22:21:48.649Z,13.40
2018-11-10T22:24:18.242Z,13.40
2018-11-10T22:26:48.531Z,13.40
2018-11-10T22:29:18.205Z,13.40
2018-11-10T22:31:47.800Z,13.40
2018-11-10T22:34:17.069Z,13.40
2018-11-10T22:36:46.274Z,13.40
2018-11-10T22:39:15.434Z,13.40
2018-11-10T22:41:44.730Z,13.50
2018-11-10T22:44:13.669Z,13.40
2018-11-10T22:46:43.281Z,13.40
2018-11-10T22:49:12.984Z,13.40
2018-11-10T22:51:42.170Z,13.40
2018-11-10T22:54:11.222Z,13.40
2018-11-10T22:56:40.237Z,13.40
2018-11-10T22:59:09.478Z,13.30
2018-11-10T23:01:38.489Z,13.30
2018-11-10T23:04:07.738Z,13.30
2018-11-10T23:06:36.957Z,13.30
2018-11-10T23:09:08.142Z,13.30
2018-11-10T23:11:37.820Z,13.30
2018-11-10T23:14:07.319Z,13.30
2018-11-10T23:16:36.414Z,13.30
2018-11-10T23:19:05.669Z,13.30
2018-11-10T23:21:35.213Z,13.30
2018-11-10T23:24:04.382Z,13.30
2018-11-10T23:26:34.130Z,13.30
2018-11-10T23:29:03.258Z,13.30
2018-11-10T23:31:32.246Z,13.30
2018-11-10T23:34:01.217Z,13.30
2018-11-10T23:36:30.505Z,13.20
2018-11-10T23:38:59.702Z,13.20
2018-11-10T23:41:28.796Z,13.10
2018-11-10T23:43:58.302Z,13.10
2018-11-10T23:46:27.909Z,13.00
2018-11-10T23:48:57.306Z,12.90
2018-11-10T23:51:26.509Z,12.90
2018-11-10T23:53:55.595Z,12.90
2018-11-10T23:56:24.565Z,12.90
2018-11-10T23:58:54.106Z,12.90
